Time;durP1;ratioP1;P1;durP2;ratioP2;P2;SDS_P1;SDS_P2;PMS_P1;PMS_P2;Temp;Humidity;BMP_temperature;BMP_pressure;BME280_temperature;BME280_humidity;BME280_pressure;Samples;Min_cycle;Max_cycle;Signal;HPM_P1;HPM_P2
2024/01/30 00:00:41;;;;;;;;;16.75;16.25;;;;;16.54;51.17;101486.78;5120605;27;45557;-70
2024/01/30 00:03:07;;;;;;;;;13.75;13.25;;;;;16.42;51.28;101482.13;5120602;27;45379;-71
2024/01/30 00:05:32;;;;;;;;;17.25;15.00;;;;;16.46;51.23;101494.53;5120870;27;45404;-71
2024/01/30 00:07:58;;;;;;;;;18.00;14.75;;;;;16.45;51.29;101495.41;5120799;27;45551;-71
2024/01/30 00:10:24;;;;;;;;;14.00;13.00;;;;;16.28;51.53;101457.22;5120483;27;45479;-71
2024/01/30 00:12:49;;;;;;;;;14.00;13.00;;;;;16.27;51.65;101460.72;5120469;27;45481;-71
2024/01/30 00:15:15;;;;;;;;;14.25;13.25;;;;;16.36;51.63;101482.00;5120596;27;45440;-71
2024/01/30 00:17:41;;;;;;;;;15.75;14.50;;;;;16.37;51.47;101491.69;5120679;27;45495;-71
2024/01/30 00:20:08;;;;;;;;;16.75;14.50;;;;;16.17;51.30;101467.53;5120393;27;46135;-71
2024/01/30 00:22:34;;;;;;;;;14.25;14.00;;;;;16.24;51.43;101487.03;5120614;27;45414;-71
2024/01/30 00:25:00;;;;;;;;;14.00;13.00;;;;;16.34;51.37;101511.84;5120310;27;45273;-71
2024/01/30 00:27:27;;;;;;;;;13.25;13.00;;;;;16.33;51.55;101510.06;5119465;27;45234;-71
2024/01/30 00:29:53;;;;;;;;;13.00;12.00;;;;;16.27;51.55;101511.72;5120395;27;45799;-71
2024/01/30 00:32:19;;;;;;;;;16.25;13.00;;;;;16.31;51.55;101515.28;5120065;27;45502;-71
2024/01/30 00:34:44;;;;;;;;;13.25;12.50;;;;;16.31;51.54;101512.66;5120149;27;46299;-71
2024/01/30 00:37:10;;;;;;;;;13.00;11.75;;;;;16.31;51.56;101515.28;5120184;27;45156;-70
2024/01/30 00:39:36;;;;;;;;;12.75;12.00;;;;;16.33;51.57;101516.22;5120121;27;46098;-71
2024/01/30 00:42:01;;;;;;;;;15.00;14.00;;;;;16.28;51.65;101516.13;5119812;27;45487;-71
2024/01/30 00:44:27;;;;;;;;;14.50;12.75;;;;;16.17;51.42;101493.00;5120028;27;45363;-71
2024/01/30 00:46:53;;;;;;;;;15.75;12.00;;;;;16.19;51.71;101502.72;5120147;27;45412;-71
2024/01/30 00:49:19;;;;;;;;;14.00;12.50;;;;;16.35;51.67;101524.16;5119756;27;45849;-71
2024/01/30 00:51:44;;;;;;;;;14.75;11.75;;;;;16.24;51.51;101505.47;5119768;27;45423;-70
2024/01/30 00:54:10;;;;;;;;;14.50;11.50;;;;;16.30;51.47;101506.50;5120064;27;45486;-71
2024/01/30 00:56:36;;;;;;;;;16.75;14.00;;;;;16.33;51.54;101518.84;5120354;27;45229;-71
2024/01/30 00:59:01;;;;;;;;;12.00;11.75;;;;;16.16;51.79;101485.97;5119570;27;45233;-71
2024/01/30 01:01:27;;;;;;;;;17.75;13.00;;;;;16.34;51.77;101517.13;5119639;27;45386;-71
2024/01/30 01:03:52;;;;;;;;;12.25;11.00;;;;;16.13;51.57;101491.16;5119608;27;45213;-71
2024/01/30 01:06:18;;;;;;;;;14.75;13.25;;;;;16.31;51.61;101523.19;5119941;27;45328;-71
2024/01/30 01:08:43;;;;;;;;;13.50;12.75;;;;;16.32;51.91;101524.13;5119487;27;45312;-71
2024/01/30 01:11:09;;;;;;;;;16.50;14.25;;;;;16.30;51.67;101522.31;5119852;27;45520;-71
2024/01/30 01:13:35;;;;;;;;;13.00;13.00;;;;;16.30;51.85;101516.16;5119439;27;45420;-71
2024/01/30 01:16:00;;;;;;;;;14.00;12.50;;;;;16.28;51.82;101518.75;5119654;27;45526;-71
2024/01/30 01:18:27;;;;;;;;;13.50;11.75;;;;;16.25;51.81;101517.78;5118986;27;45528;-71
2024/01/30 01:20:52;;;;;;;;;14.75;12.25;;;;;16.23;51.92;101530.06;5119076;27;45554;-70
2024/01/30 01:23:18;;;;;;;;;15.25;13.75;;;;;16.18;52.47;101531.72;5119089;27;45331;-71
2024/01/30 01:25:44;;;;;;;;;18.25;15.50;;;;;16.17;52.23;101536.06;5119663;27;45540;-71
2024/01/30 01:28:09;;;;;;;;;12.75;12.00;;;;;16.04;52.13;101521.72;5119232;27;45349;-71
2024/01/30 01:30:35;;;;;;;;;17.00;13.75;;;;;16.07;52.11;101521.78;5119134;27;45370;-71
2024/01/30 01:33:02;;;;;;;;;12.25;11.25;;;;;16.16;51.89;101541.34;5119018;27;45454;-71
2024/01/30 01:35:28;;;;;;;;;16.50;15.50;;;;;16.14;52.01;101536.03;5119211;27;45163;-71
2024/01/30 01:37:59;;;;;;;;;15.75;14.50;;;;;15.99;52.32;101522.47;5117104;27;46403;-71
2024/01/30 01:40:26;;;;;;;;;19.75;15.00;;;;;16.14;51.93;101543.03;5118874;27;45350;-71
2024/01/30 01:42:53;;;;;;;;;22.75;19.00;;;;;16.11;52.16;101551.75;5119156;27;45469;-70
2024/01/30 01:45:19;;;;;;;;;17.50;15.75;;;;;16.09;52.18;101549.09;5119067;27;45555;-70
2024/01/30 01:47:48;;;;;;;;;17.75;17.25;;;;;16.06;52.35;101543.75;5118420;27;46005;-71
2024/01/30 01:50:18;;;;;;;;;18.50;17.50;;;;;16.07;52.54;101537.59;5118762;27;45502;-71
2024/01/30 01:52:47;;;;;;;;;18.50;18.25;;;;;15.88;52.42;101509.94;5118854;27;45249;-71
2024/01/30 01:55:13;;;;;;;;;19.50;19.50;;;;;16.04;52.50;101545.47;5119286;27;45363;-71
2024/01/30 01:57:39;;;;;;;;;21.00;17.75;;;;;16.03;52.10;101546.28;5118912;27;45474;-71
2024/01/30 02:00:05;;;;;;;;;19.00;18.00;;;;;16.04;52.65;101549.84;5118516;27;45451;-71
2024/01/30 02:02:35;;;;;;;;;25.00;17.25;;;;;15.77;53.00;101497.38;5118826;27;45256;-70
2024/01/30 02:05:02;;;;;;;;;18.25;16.75;;;;;16.02;52.40;101546.28;5118866;27;45297;-71
2024/01/30 02:07:30;;;;;;;;;25.50;20.50;;;;;15.68;52.58;101483.09;5118405;27;45336;-70
2024/01/30 02:09:56;;;;;;;;;23.00;21.25;;;;;16.01;52.44;101536.59;5118581;27;45472;-70
2024/01/30 02:12:21;;;;;;;;;22.00;18.75;;;;;16.01;52.40;101537.47;5118650;27;45379;-71
2024/01/30 02:14:48;;;;;;;;;19.25;17.50;;;;;15.96;52.54;101536.47;5118718;27;45298;-71
2024/01/30 02:17:15;;;;;;;;;16.00;14.50;;;;;15.98;52.37;101539.16;5118914;27;45968;-71
2024/01/30 02:19:41;;;;;;;;;16.75;16.00;;;;;15.96;52.51;101544.38;5118644;27;45393;-71
2024/01/30 02:22:07;;;;;;;;;20.00;18.00;;;;;15.99;52.52;101540.94;5118441;27;45411;-71
2024/01/30 02:24:33;;;;;;;;;21.00;18.75;;;;;15.98;52.34;101540.03;5118803;27;45478;-71
2024/01/30 02:26:59;;;;;;;;;22.00;20.25;;;;;16.00;52.71;101545.34;5118037;27;45900;-71
2024/01/30 02:29:24;;;;;;;;;18.75;17.25;;;;;15.97;52.58;101527.69;5118064;27;45440;-70
2024/01/30 02:31:50;;;;;;;;;20.25;19.00;;;;;15.68;52.49;101487.47;5118639;27;45284;-71
2024/01/30 02:34:16;;;;;;;;;20.25;18.25;;;;;15.97;52.49;101532.09;5118538;27;45374;-71
2024/01/30 02:36:45;;;;;;;;;21.25;19.50;;;;;15.85;52.56;101520.41;5118414;27;46047;-71
2024/01/30 02:39:11;;;;;;;;;19.00;18.25;;;;;15.92;52.65;101545.16;5118273;27;45461;-70
2024/01/30 02:41:37;;;;;;;;;20.25;18.00;;;;;15.66;52.57;101513.78;5118080;27;45331;-71
2024/01/30 02:44:03;;;;;;;;;19.00;18.25;;;;;15.84;52.69;101546.72;5118179;27;45329;-71
2024/01/30 02:46:29;;;;;;;;;18.50;16.75;;;;;15.70;52.75;101523.53;5117976;27;45559;-71
2024/01/30 02:48:54;;;;;;;;;20.00;19.25;;;;;15.88;52.69;101548.59;5117949;27;45359;-71
2024/01/30 02:51:20;;;;;;;;;19.00;17.25;;;;;15.83;52.83;101544.94;5120805;27;45525;-71
2024/01/30 02:53:46;;;;;;;;;20.00;18.00;;;;;15.85;52.89;101554.66;5122098;27;45485;-71
2024/01/30 02:56:13;;;;;;;;;20.00;19.25;;;;;15.82;52.76;101553.72;5121822;27;46631;-71
2024/01/30 02:58:40;;;;;;;;;20.50;17.75;;;;;15.83;52.83;101555.47;5121253;27;45581;-70
2024/01/30 03:01:06;;;;;;;;;17.75;17.00;;;;;15.78;52.91;101558.00;5121674;27;45357;-71
2024/01/30 03:03:32;;;;;;;;;17.75;16.75;;;;;15.76;53.02;101559.72;5122139;27;45364;-71
2024/01/30 03:05:57;;;;;;;;;17.25;15.75;;;;;15.74;52.68;101561.41;5121300;27;45468;-71
2024/01/30 03:08:23;;;;;;;;;19.25;18.00;;;;;15.74;52.90;101561.41;5121433;27;45447;-71
2024/01/30 03:10:49;;;;;;;;;18.25;16.00;;;;;15.71;52.95;101559.53;5121526;27;45451;-71
2024/01/30 03:13:14;;;;;;;;;17.25;16.25;;;;;15.71;52.90;101561.28;5121950;27;45546;-71
2024/01/30 03:15:40;;;;;;;;;21.00;17.00;;;;;15.70;52.99;101565.69;5121280;27;45320;-71
2024/01/30 03:18:06;;;;;;;;;18.50;17.25;;;;;15.70;53.00;101552.50;5121190;27;45235;-71
2024/01/30 03:20:31;;;;;;;;;17.50;15.00;;;;;15.64;52.76;101549.72;5121525;27;45281;-71
2024/01/30 03:22:57;;;;;;;;;16.00;13.25;;;;;15.66;52.99;101555.03;5121476;27;45428;-72
2024/01/30 03:25:22;;;;;;;;;19.00;16.00;;;;;15.64;52.88;101560.25;5121063;27;46060;-71
2024/01/30 03:27:48;;;;;;;;;16.75;15.25;;;;;15.49;53.13;101525.63;5121113;27;45467;-71
2024/01/30 03:30:14;;;;;;;;;16.50;14.75;;;;;15.65;52.94;101561.16;5121510;27;45471;-71
2024/01/30 03:32:40;;;;;;;;;16.50;15.50;;;;;15.67;52.93;101570.84;5121229;27;45284;-71
2024/01/30 03:35:06;;;;;;;;;14.25;13.50;;;;;15.63;52.77;101570.75;5120826;27;46202;-71
2024/01/30 03:37:31;;;;;;;;;14.25;12.50;;;;;15.65;52.76;101567.28;5120944;27;45457;-71
2024/01/30 03:39:57;;;;;;;;;13.75;12.25;;;;;15.52;52.94;101547.66;5121097;27;45353;-71
2024/01/30 03:42:23;;;;;;;;;16.00;15.25;;;;;15.64;52.86;101570.78;5121025;27;45363;-71
2024/01/30 03:44:51;;;;;;;;;14.75;11.25;;;;;15.65;52.81;101562.03;5121130;27;46100;-71
2024/01/30 03:47:17;;;;;;;;;14.25;12.25;;;;;15.66;52.81;101558.56;5121201;27;45249;-71
2024/01/30 03:49:42;;;;;;;;;17.00;13.25;;;;;15.68;52.76;101566.50;5120807;27;45478;-71
2024/01/30 03:52:08;;;;;;;;;13.25;12.50;;;;;15.63;52.68;101553.19;5120877;27;45341;-71
2024/01/30 03:54:34;;;;;;;;;18.00;15.25;;;;;15.67;52.72;101568.22;5120544;27;45256;-70
2024/01/30 03:56:59;;;;;;;;;18.25;16.50;;;;;15.68;52.80;101567.38;5120594;27;45223;-71
2024/01/30 03:59:25;;;;;;;;;17.75;14.75;;;;;15.66;52.79;101571.72;5120884;27;45757;-71
2024/01/30 04:01:51;;;;;;;;;15.50;15.25;;;;;15.43;52.75;101530.72;5120727;27;45314;-71
2024/01/30 04:04:18;;;;;;;;;18.50;15.75;;;;;15.63;53.00;101569.00;5120510;27;45478;-71
2024/01/30 04:06:44;;;;;;;;;16.75;15.50;;;;;15.62;52.80;101569.88;5120345;27;45399;-71
2024/01/30 04:09:09;;;;;;;;;17.50;15.75;;;;;15.62;52.91;101569.88;5120417;27;45379;-71
2024/01/30 04:11:35;;;;;;;;;11.75;10.75;;;;;15.62;52.63;101563.72;5120637;27;45494;-71
2024/01/30 04:14:01;;;;;;;;;15.25;14.50;;;;;15.55;52.79;101552.13;5120229;27;45497;-71
2024/01/30 04:16:26;;;;;;;;;15.50;13.50;;;;;15.64;52.52;101560.25;5120336;27;45279;-71
2024/01/30 04:18:52;;;;;;;;;17.50;15.75;;;;;15.64;52.73;101562.91;5120422;27;45454;-71
2024/01/30 04:21:18;;;;;;;;;17.50;15.25;;;;;15.66;52.54;101565.56;5120893;27;45235;-71
2024/01/30 04:23:43;;;;;;;;;10.75;10.00;;;;;15.63;52.59;101565.47;5120058;27;45930;-71
2024/01/30 04:26:09;;;;;;;;;12.50;11.75;;;;;15.60;52.76;101568.94;5120188;27;45247;-71
2024/01/30 04:28:35;;;;;;;;;15.00;11.50;;;;;15.60;52.75;101570.69;5120179;27;45432;-71
2024/01/30 04:31:00;;;;;;;;;16.25;15.25;;;;;15.56;52.94;101580.25;5120484;27;45387;-71
2024/01/30 04:33:26;;;;;;;;;18.00;15.75;;;;;15.56;52.86;101579.34;5120018;27;45976;-71
2024/01/30 04:35:51;;;;;;;;;14.25;14.00;;;;;15.58;53.05;101586.44;5120382;27;45320;-71
2024/01/30 04:38:17;;;;;;;;;18.25;15.75;;;;;15.57;52.93;101587.28;5120231;27;45331;-71
2024/01/30 04:40:43;;;;;;;;;10.75;9.25;;;;;15.57;52.92;101589.91;5120364;27;45755;-70
2024/01/30 04:43:09;;;;;;;;;14.25;13.75;;;;;15.61;52.76;101585.63;5119881;27;45235;-71
2024/01/30 04:45:34;;;;;;;;;13.75;12.75;;;;;15.60;52.68;101594.38;5119943;27;45452;-71
2024/01/30 04:48:00;;;;;;;;;16.00;13.75;;;;;15.62;52.83;101593.56;5120120;27;45347;-71
2024/01/30 04:50:26;;;;;;;;;13.75;12.25;;;;;15.62;52.74;101584.78;5119981;27;45425;-71
2024/01/30 04:52:52;;;;;;;;;14.25;14.00;;;;;15.64;52.74;101590.97;5119951;27;45380;-71
2024/01/30 04:55:18;;;;;;;;;15.75;15.00;;;;;15.63;52.60;101594.47;5119603;27;45216;-71
2024/01/30 04:57:43;;;;;;;;;16.25;15.25;;;;;15.64;52.75;101599.78;5119929;27;45446;-71
2024/01/30 05:00:10;;;;;;;;;16.25;14.00;;;;;15.62;52.74;101606.75;5119957;27;45454;-70
2024/01/30 05:02:35;;;;;;;;;17.25;14.25;;;;;15.63;52.74;101608.50;5119465;27;45403;-71
2024/01/30 05:05:01;;;;;;;;;17.00;14.25;;;;;15.50;52.68;101588.00;5118041;27;45501;-70
2024/01/30 05:07:26;;;;;;;;;12.50;11.75;;;;;15.48;52.72;101579.16;5119649;27;45467;-71
2024/01/30 05:09:52;;;;;;;;;17.75;11.75;;;;;15.66;52.52;101603.34;5119974;27;45427;-71
2024/01/30 05:12:18;;;;;;;;;13.75;12.25;;;;;15.62;52.61;101600.59;5119041;27;45379;-71
2024/01/30 05:14:44;;;;;;;;;15.75;14.00;;;;;15.62;52.68;101597.97;5118833;27;45417;-71
2024/01/30 05:17:10;;;;;;;;;16.00;14.00;;;;;15.43;52.48;101575.50;5119545;27;45363;-71
2024/01/30 05:19:35;;;;;;;;;18.25;14.75;;;;;15.61;52.58;101597.03;5119344;27;45467;-71
2024/01/30 05:22:01;;;;;;;;;8.00;7.25;;;;;15.62;52.60;101603.22;5119166;27;45240;-71
2024/01/30 05:24:27;;;;;;;;;17.00;16.50;;;;;15.61;52.42;101601.44;5119051;27;45240;-71
2024/01/30 05:26:52;;;;;;;;;12.75;12.50;;;;;15.59;52.56;101606.66;5119681;27;45478;-71
2024/01/30 05:29:18;;;;;;;;;20.00;17.25;;;;;15.59;52.63;101603.13;5119506;27;45221;-71
2024/01/30 05:31:44;;;;;;;;;14.00;13.00;;;;;15.43;52.32;101586.03;5119001;27;45508;-71
2024/01/30 05:34:09;;;;;;;;;17.75;15.00;;;;;15.49;52.40;101588.81;5118377;27;45667;-71
2024/01/30 05:36:35;;;;;;;;;17.75;15.25;;;;;15.57;52.31;101605.72;5118866;27;45304;-71
2024/01/30 05:39:01;;;;;;;;;13.00;11.75;;;;;15.57;52.29;101607.47;5118919;27;45500;-71
2024/01/30 05:41:26;;;;;;;;;17.00;15.50;;;;;15.55;52.25;101615.31;5118514;27;45436;-71
2024/01/30 05:43:55;;;;;;;;;14.00;13.50;;;;;15.43;52.38;101597.44;5119252;27;45387;-71
2024/01/30 05:46:21;;;;;;;;;11.25;10.75;;;;;15.49;52.17;101620.41;5119075;27;45505;-71
2024/01/30 05:48:46;;;;;;;;;13.00;12.25;;;;;15.53;52.33;101619.66;5118969;27;45478;-71
2024/01/30 05:51:12;;;;;;;;;13.00;11.75;;;;;15.50;52.32;101620.47;5118462;27;45261;-71
2024/01/30 05:53:38;;;;;;;;;19.25;15.25;;;;;15.52;52.40;101624.03;5118452;27;45253;-71
2024/01/30 05:56:04;;;;;;;;;16.00;14.50;;;;;15.50;52.37;101623.09;5118772;27;45485;-71
2024/01/30 05:58:30;;;;;;;;;16.00;14.75;;;;;15.34;52.52;101602.47;5118682;27;45372;-71
2024/01/30 06:00:57;;;;;;;;;16.75;15.25;;;;;15.41;52.29;101609.69;5118839;27;45372;-71
2024/01/30 06:03:23;;;;;;;;;16.25;12.50;;;;;15.40;52.58;101625.44;5117362;27;45282;-71
2024/01/30 06:05:48;;;;;;;;;19.25;17.75;;;;;15.39;52.57;101615.75;5118501;27;45383;-71
2024/01/30 06:08:14;;;;;;;;;17.25;16.50;;;;;15.26;52.63;101602.28;5118779;27;45296;-71
2024/01/30 06:10:40;;;;;;;;;17.00;16.00;;;;;15.40;52.57;101617.53;5118512;27;45499;-71
2024/01/30 06:13:06;;;;;;;;;20.50;17.00;;;;;15.35;52.60;101629.69;5118424;27;45229;-71
2024/01/30 06:15:32;;;;;;;;;15.75;13.25;;;;;15.30;52.86;101635.72;5118499;27;45269;-71
2024/01/30 06:17:58;;;;;;;;;16.75;15.25;;;;;15.23;52.70;101633.75;5118626;27;45455;-70
2024/01/30 06:20:24;;;;;;;;;16.00;13.50;;;;;15.21;52.88;101638.09;5118410;27;45360;-71
2024/01/30 06:22:50;;;;;;;;;14.75;12.75;;;;;15.20;52.79;101632.78;5117108;27;46002;-71
2024/01/30 06:25:16;;;;;;;;;9.50;9.00;;;;;15.18;52.86;101630.13;5116573;27;45620;-71
2024/01/30 06:27:42;;;;;;;;;14.50;14.25;;;;;15.19;52.71;101639.78;5117696;27;45526;-71
2024/01/30 06:30:08;;;;;;;;;15.25;13.50;;;;;15.14;52.86;101641.41;5117302;27;46118;-71
2024/01/30 06:32:35;;;;;;;;;16.00;15.00;;;;;15.13;52.91;101641.38;5115495;27;45542;-71
2024/01/30 06:35:01;;;;;;;;;14.75;13.25;;;;;14.80;53.20;101586.91;5117144;27;45460;-71
2024/01/30 06:37:27;;;;;;;;;13.00;12.25;;;;;15.06;52.92;101633.28;5117139;27;45651;-71
2024/01/30 06:39:53;;;;;;;;;12.75;12.25;;;;;15.04;52.95;101627.09;5116245;27;45409;-71
2024/01/30 06:42:19;;;;;;;;;14.75;14.00;;;;;14.98;53.37;101628.63;5116975;27;45529;-71
2024/01/30 06:44:44;;;;;;;;;18.00;15.00;;;;;14.98;53.15;101647.97;5117100;27;45497;-71
2024/01/30 06:47:10;;;;;;;;;16.00;13.50;;;;;14.82;53.63;101620.31;5117911;27;45456;-71
2024/01/30 06:49:39;;;;;;;;;15.25;14.75;;;;;14.99;53.12;101636.56;5117232;27;45507;-71
2024/01/30 06:52:07;;;;;;;;;16.75;15.25;;;;;14.93;53.36;101628.50;5116849;27;45516;-71
2024/01/30 06:54:33;;;;;;;;;16.00;15.00;;;;;14.99;53.33;101638.31;5117084;27;45315;-71
2024/01/30 06:56:59;;;;;;;;;17.00;15.00;;;;;15.02;53.20;101644.56;5117484;27;45470;-70
2024/01/30 06:59:25;;;;;;;;;15.25;15.00;;;;;15.05;53.30;101651.66;5116801;27;45198;-71
2024/01/30 07:01:50;;;;;;;;;15.00;13.00;;;;;15.03;53.28;101662.13;5117135;27;45618;-71
2024/01/30 07:04:16;;;;;;;;;15.00;15.00;;;;;15.00;53.15;101669.03;5117147;27;45351;-71
2024/01/30 07:06:42;;;;;;;;;16.25;11.25;;;;;14.95;53.15;101671.53;5117327;27;45401;-71
2024/01/30 07:09:11;;;;;;;;;17.75;15.25;;;;;14.95;53.15;101674.19;5116867;27;46064;-71
2024/01/30 07:11:36;;;;;;;;;17.75;16.25;;;;;14.95;53.38;101681.19;5116989;27;45421;-71
2024/01/30 07:14:05;;;;;;;;;13.00;11.00;;;;;14.75;53.16;101654.28;5116991;27;45494;-71
2024/01/30 07:16:31;;;;;;;;;18.00;16.50;;;;;14.89;53.64;101688.03;5116088;27;45517;-71
2024/01/30 07:18:57;;;;;;;;;18.00;17.00;;;;;14.60;53.37;101628.38;5116766;27;45965;-71
2024/01/30 07:21:27;;;;;;;;;21.50;19.50;;;;;14.95;53.35;101696.97;5116521;27;45654;-71
2024/01/30 07:23:54;;;;;;;;;18.25;16.75;;;;;14.83;53.32;101679.94;5116855;27;45230;-71
2024/01/30 07:26:19;;;;;;;;;21.75;18.00;;;;;14.93;53.51;101704.81;5116979;27;45471;-71
2024/01/30 07:28:45;;;;;;;;;24.75;20.00;;;;;14.90;53.57;101708.25;5116543;27;46029;-71
2024/01/30 07:31:11;;;;;;;;;19.25;16.75;;;;;14.94;53.36;101708.31;5116618;27;45332;-71
2024/01/30 07:33:36;;;;;;;;;15.00;15.00;;;;;14.93;53.44;101709.19;5117411;27;45456;-71
2024/01/30 07:36:02;;;;;;;;;17.50;16.00;;;;;14.91;53.57;101715.28;5118522;27;45967;-71
2024/01/30 07:38:27;;;;;;;;;20.00;18.25;;;;;14.60;53.13;101659.94;5120807;27;45415;-71
2024/01/30 07:40:53;;;;;;;;;20.00;18.50;;;;;14.82;53.49;101701.88;5108096;27;45296;-71
2024/01/30 07:43:20;;;;;;;;;15.75;15.50;;;;;14.98;53.29;101724.28;5100115;27;45316;-71
2024/01/30 07:45:45;;;;;;;;;19.50;17.75;;;;;14.98;53.31;101731.25;5100361;27;45364;-71
2024/01/30 07:48:11;;;;;;;;;19.00;16.00;;;;;14.99;53.31;101730.41;5099587;27;45991;-71
2024/01/30 07:50:37;;;;;;;;;23.00;18.00;;;;;15.01;53.07;101734.88;5099758;27;45743;-71
2024/01/30 07:53:02;;;;;;;;;21.25;19.25;;;;;15.00;52.79;101716.41;5117973;27;45420;-70
2024/01/30 07:55:51;;;;;;;;;22.00;20.00;;;;;15.05;52.79;101722.72;5120544;27;45463;-70
2024/01/30 07:58:16;;;;;;;;;16.00;15.50;;;;;15.13;52.61;101734.38;5118277;27;45185;-71
2024/01/30 08:00:42;;;;;;;;;20.75;18.25;;;;;15.17;52.67;101730.09;5119134;27;45548;-70
2024/01/30 08:03:07;;;;;;;;;16.75;15.00;;;;;15.18;52.42;101735.41;5119401;27;45435;-70
2024/01/30 08:05:33;;;;;;;;;18.75;17.00;;;;;15.08;52.36;101713.19;5120037;27;45321;-71
2024/01/30 08:07:58;;;;;;;;;18.00;14.25;;;;;15.25;52.24;101734.72;5119718;27;45400;-71
2024/01/30 08:10:24;;;;;;;;;20.50;19.25;;;;;15.32;52.09;101736.69;5119735;27;45436;-71
2024/01/30 08:12:50;;;;;;;;;19.00;18.00;;;;;15.40;52.15;101743.91;5119751;27;45347;-71
2024/01/30 08:15:16;;;;;;;;;19.75;18.75;;;;;15.48;51.94;101734.53;5119619;27;45468;-70
2024/01/30 08:17:41;;;;;;;;;18.75;17.00;;;;;15.55;51.85;101743.47;5119453;27;45965;-70
2024/01/30 08:20:11;;;;;;;;;16.25;16.25;;;;;15.55;51.60;101727.69;5119524;27;45347;-71
2024/01/30 08:22:39;;;;;;;;;19.25;17.00;;;;;15.75;51.59;101752.88;5119590;27;45591;-70
2024/01/30 08:25:05;;;;;;;;;17.00;15.50;;;;;15.85;51.35;101751.38;5116975;27;45432;-71
2024/01/30 08:27:31;;;;;;;;;14.50;13.00;;;;;15.90;51.19;101748.03;5119967;27;45534;-71
2024/01/30 08:29:57;;;;;;;;;16.50;15.50;;;;;15.97;50.88;101750.84;5119763;27;45433;-70
2024/01/30 08:32:23;;;;;;;;;17.00;16.25;;;;;16.03;50.66;101743.09;5119727;27;45376;-70
2024/01/30 08:34:49;;;;;;;;;19.00;18.00;;;;;16.11;50.66;101752.09;5119767;27;45483;-71
2024/01/30 08:37:16;;;;;;;;;14.75;13.25;;;;;16.02;50.22;101714.97;5119554;27;45389;-70
2024/01/30 08:39:43;;;;;;;;;16.00;14.25;;;;;16.30;50.10;101754.34;5119705;27;45391;-70
2024/01/30 08:42:09;;;;;;;;;18.25;16.75;;;;;16.36;49.85;101758.91;5119701;27;45367;-70
2024/01/30 08:44:34;;;;;;;;;18.50;18.00;;;;;16.43;49.75;101749.38;5120193;27;45275;-70
2024/01/30 08:47:00;;;;;;;;;18.25;16.00;;;;;16.42;49.26;101731.78;5119415;27;45608;-70
2024/01/30 08:49:26;;;;;;;;;11.00;11.00;;;;;16.81;48.88;101747.75;5118898;27;45346;-71
2024/01/30 08:51:51;;;;;;;;;17.50;16.00;;;;;17.30;48.33;101751.47;5119509;27;45576;-71
2024/01/30 08:54:17;;;;;;;;;19.25;14.00;;;;;17.99;47.63;101757.28;5120178;27;45415;-71
2024/01/30 08:56:43;;;;;;;;;16.50;16.00;;;;;18.63;45.82;101752.22;5118102;27;45429;-71
2024/01/30 08:59:08;;;;;;;;;22.75;20.00;;;;;19.25;44.75;101762.00;5118011;27;45496;-70
2024/01/30 09:01:34;;;;;;;;;20.00;17.25;;;;;19.85;43.81;101746.84;5119838;27;45458;-71
2024/01/30 09:04:00;;;;;;;;;18.50;17.25;;;;;20.32;42.86;101742.03;5119718;27;45378;-71
2024/01/30 09:06:27;;;;;;;;;20.00;19.00;;;;;20.33;41.52;101726.09;5119334;27;45486;-71
2024/01/30 09:08:53;;;;;;;;;18.25;18.00;;;;;20.26;41.74;101727.81;5119399;27;45353;-71
2024/01/30 09:11:19;;;;;;;;;17.50;16.50;;;;;20.26;41.26;101708.38;5119486;27;45295;-70
2024/01/30 09:13:44;;;;;;;;;26.50;21.50;;;;;20.80;41.56;101741.53;5119583;27;45383;-70
2024/01/30 09:16:10;;;;;;;;;15.25;15.00;;;;;20.97;40.81;101738.09;5119317;27;45904;-71
2024/01/30 09:18:36;;;;;;;;;19.00;16.00;;;;;21.07;40.29;101734.66;5119444;27;45503;-71
2024/01/30 09:21:01;;;;;;;;;16.25;15.50;;;;;20.99;40.39;101741.66;5119283;27;45526;-70
2024/01/30 09:23:27;;;;;;;;;22.25;20.75;;;;;21.02;39.82;101747.00;5119441;27;45478;-71
2024/01/30 09:25:53;;;;;;;;;20.00;16.75;;;;;21.29;38.84;101750.66;5119092;27;46101;-71
2024/01/30 09:28:19;;;;;;;;;22.50;21.75;;;;;21.35;39.65;101740.97;5118787;27;45526;-71
2024/01/30 09:30:44;;;;;;;;;16.25;15.00;;;;;21.62;40.15;101748.19;5119300;27;45397;-71
2024/01/30 09:33:10;;;;;;;;;18.00;16.00;;;;;21.73;39.13;101747.38;5119358;27;45403;-71
2024/01/30 09:35:36;;;;;;;;;17.75;15.00;;;;;21.79;38.53;101753.56;5117966;27;45246;-71
2024/01/30 09:38:02;;;;;;;;;18.75;16.50;;;;;21.90;38.99;101750.94;5119043;27;45473;-70
2024/01/30 09:40:28;;;;;;;;;17.00;15.75;;;;;22.15;38.21;101756.31;5118835;27;45318;-71
2024/01/30 09:42:54;;;;;;;;;16.00;15.33;;;;;22.32;37.86;101735.97;5119255;27;45523;-71
2024/01/30 09:45:24;;;;;;;;;16.50;15.00;;;;;22.75;38.19;101756.34;5118589;27;46050;-71
2024/01/30 09:47:50;;;;;;;;;18.00;17.00;;;;;22.87;37.13;101750.13;5118815;27;45511;-71
2024/01/30 09:50:16;;;;;;;;;18.00;16.67;;;;;23.12;37.28;101754.53;5118854;27;45316;-71
2024/01/30 09:52:46;;;;;;;;;16.67;15.33;;;;;23.06;37.25;101725.25;5118911;27;45498;-71
2024/01/30 09:55:12;;;;;;;;;13.00;13.00;;;;;23.19;37.26;101763.41;5118363;27;45443;-71
2024/01/30 09:57:41;;;;;;;;;20.00;19.33;;;;;23.24;36.82;101764.28;5118883;27;45263;-71
2024/01/30 10:00:08;;;;;;;;;17.00;16.00;;;;;23.20;37.19;101757.19;5118928;27;45525;-71
2024/01/30 10:02:35;;;;;;;;;18.67;17.00;;;;;22.99;36.83;101731.44;5118593;27;45516;-71
2024/01/30 10:05:01;;;;;;;;;19.00;16.00;;;;;23.03;36.95;101759.88;5118375;27;46043;-71
2024/01/30 10:07:26;;;;;;;;;13.00;11.00;;;;;22.97;36.79;101765.19;5117051;27;45511;-70
2024/01/30 10:09:53;;;;;;;;;15.33;13.33;;;;;22.92;37.38;101759.88;5118346;27;45433;-71
2024/01/30 10:12:19;;;;;;;;;15.33;15.33;;;;;22.95;37.11;101761.66;5118695;27;45420;-71
2024/01/30 10:14:45;;;;;;;;;14.00;13.00;;;;;22.89;36.93;101757.22;5118111;27;46090;-71
2024/01/30 10:17:12;;;;;;;;;17.00;16.33;;;;;22.88;36.99;101755.44;5118687;27;45444;-70
2024/01/30 10:19:39;;;;;;;;;15.67;15.67;;;;;22.83;36.80;101762.56;5118669;27;45430;-71
2024/01/30 10:22:05;;;;;;;;;14.00;13.33;;;;;22.75;37.26;101762.56;5118780;27;45325;-71
2024/01/30 10:24:31;;;;;;;;;15.67;15.33;;;;;22.64;37.62;101772.31;5118140;27;46000;-71
2024/01/30 10:26:57;;;;;;;;;14.33;14.33;;;;;22.56;37.98;101768.78;5118221;27;45472;-71
2024/01/30 10:29:23;;;;;;;;;13.00;12.00;;;;;22.61;37.65;101764.34;5118192;27;45507;-71
2024/01/30 10:32:02;;;;;;;;;13.00;12.75;;;;;22.64;38.17;101783.88;5118303;27;45398;-71
2024/01/30 10:34:28;;;;;;;;;15.67;14.33;;;;;22.64;37.28;101777.66;5121227;27;45358;-71
2024/01/30 10:37:03;;;;;;;;;28.50;26.50;;;;;22.49;37.02;101780.34;5117872;27;46030;-70
2024/01/30 10:39:32;;;;;;;;;18.25;15.75;;;;;22.46;37.49;101778.53;5118177;27;45379;-70
2024/01/30 10:42:05;;;;;;;;;17.50;17.25;;;;;22.46;37.08;101767.00;5118379;27;45573;-70
2024/01/30 10:44:37;;;;;;;;;30.00;29.25;;;;;22.49;38.11;101780.34;5117924;27;45397;-72
2024/01/30 10:47:09;;;;;;;;;34.00;32.25;;;;;22.24;37.11;101741.28;5118070;27;45502;-71
2024/01/30 10:49:35;;;;;;;;;37.75;32.75;;;;;22.44;37.36;101769.66;5118083;27;45463;-71
2024/01/30 10:52:02;;;;;;;;;36.00;31.75;;;;;22.37;37.48;101770.56;5118176;27;45510;-73
2024/01/30 10:54:28;;;;;;;;;65.50;52.75;;;;;22.32;37.90;101754.59;5117581;27;45266;-73
2024/01/30 10:56:56;;;;;;;;;54.50;45.25;;;;;22.35;37.59;101749.25;5117794;27;45414;-73
2024/01/30 10:59:23;;;;;;;;;54.00;43.75;;;;;22.50;37.54;101760.78;5117872;27;45506;-73
2024/01/30 11:01:50;;;;;;;;;49.25;40.75;;;;;22.56;38.08;101763.44;5118170;27;45306;-73
2024/01/30 11:04:16;;;;;;;;;55.50;43.75;;;;;22.71;37.53;101758.13;5117576;27;46197;-73